KFPR/FPR METAR and TAF weather

Enter ICAO airport designator
Station Type Date Time Source
KFPR METAR 2019/10/15 21:53 UTC NOAA

KFPR 152153Z 13008KT 10SM CLR 27/19 A2998 RMK AO2 SLP151 T02670189


Station Type Date Time Source
KFPR Decoded METAR 2019/10/15 21:53 UTC NOAA

FORT PIERCE ST LUCIE, FL, United States (KFPR) 27-30N 080-23W 13M
Oct 15, 2019 - 05:53 PM EDT / 2019.10.15 2153 UTC
Wind: from the SE (130 degrees) at 9 MPH (8 KT):0
Visibility: 10 mile(s):0
Sky conditions: clear
Temperature: 80.1 F (26.7 C)
Dew Point: 66.0 F (18.9 C)
Relative Humidity: 62%
Pressure (altimeter): 29.98 in. Hg (1015 hPa)
ob: KFPR 152153Z 13008KT 10SM CLR 27/19 A2998 RMK AO2 SLP151 T02670189
cycle: 22

Station Type Date Time Source
KFPR TAF 2019/10/15 18:33 UTC NOAA

TAF KFPR 151731Z 1518/1618 11010KT P6SM SCT035 SCT200
FM160200 15004KT P6SM SCT150 SCT250
FM161400 22008KT P6SM SCT030 SCT250

Example: see airport list